createdAt,value
2022-11-15T00:01:57.780Z,0.30
2022-11-15T00:04:24.379Z,0.20
2022-11-15T00:06:52.487Z,0.20
2022-11-15T00:09:19.145Z,0.20
2022-11-15T00:11:45.608Z,0.30
2022-11-15T00:14:12.090Z,0.20
2022-11-15T00:16:38.527Z,0.20
2022-11-15T00:19:04.998Z,0.20
2022-11-15T00:21:31.511Z,0.22
2022-11-15T00:23:59.209Z,0.20
2022-11-15T00:26:25.688Z,0.22
2022-11-15T00:28:52.989Z,0.20
2022-11-15T00:31:19.752Z,0.20
2022-11-15T00:33:46.626Z,0.20
2022-11-15T00:36:13.625Z,0.20
2022-11-15T00:38:40.978Z,0.10
2022-11-15T00:41:09.954Z,0.10
2022-11-15T00:43:37.626Z,0.20
2022-11-15T00:46:04.312Z,0.30
2022-11-15T00:48:31.336Z,0.10
2022-11-15T00:50:58.094Z,0.20
2022-11-15T00:53:24.751Z,0.20
2022-11-15T00:55:51.242Z,0.20
2022-11-15T00:58:17.940Z,0.20
2022-11-15T01:00:44.549Z,0.30
2022-11-15T01:03:11.260Z,0.25
2022-11-15T01:05:38.640Z,0.20
2022-11-15T01:08:05.559Z,0.20
2022-11-15T01:10:32.099Z,0.10
2022-11-15T01:12:58.680Z,0.20
2022-11-15T01:15:26.888Z,0.30
2022-11-15T01:17:53.621Z,0.20
2022-11-15T01:20:20.247Z,0.30
2022-11-15T01:22:47.079Z,0.20
2022-11-15T01:25:13.757Z,0.30
2022-11-15T01:27:40.400Z,0.20
2022-11-15T01:30:07.499Z,0.20
2022-11-15T01:32:34.219Z,0.30
2022-11-15T01:35:00.856Z,0.28
2022-11-15T01:37:27.499Z,0.25
2022-11-15T01:39:54.121Z,0.20
2022-11-15T01:42:20.979Z,0.20
2022-11-15T01:44:48.939Z,0.20
2022-11-15T01:47:27.249Z,0.20
2022-11-15T01:49:59.005Z,0.20
2022-11-15T01:52:27.740Z,0.20
2022-11-15T01:55:02.259Z,0.30
2022-11-15T01:57:29.220Z,0.20
2022-11-15T01:59:56.021Z,0.30
2022-11-15T02:02:22.641Z,0.20
2022-11-15T02:04:49.442Z,0.20
2022-11-15T02:07:18.290Z,0.10
2022-11-15T02:09:45.599Z,0.28
2022-11-15T02:12:13.720Z,0.20
2022-11-15T02:14:41.541Z,0.20
2022-11-15T02:17:32.168Z,0.20
2022-11-15T02:20:17.780Z,0.30
2022-11-15T02:22:44.260Z,0.20
2022-11-15T02:25:29.819Z,0.30
2022-11-15T02:27:56.793Z,0.30
2022-11-15T02:30:25.583Z,0.22
2022-11-15T02:32:55.139Z,0.10
2022-11-15T02:35:31.065Z,0.20
2022-11-15T02:38:03.962Z,0.22
2022-11-15T02:40:39.999Z,0.30
2022-11-15T02:43:29.717Z,0.20
2022-11-15T02:46:07.063Z,0.20
2022-11-15T02:48:34.601Z,0.25
2022-11-15T02:51:02.181Z,0.20
2022-11-15T02:53:28.848Z,0.20
2022-11-15T02:55:57.666Z,0.30
2022-11-15T02:58:34.005Z,0.30
2022-11-15T03:01:23.803Z,0.20
2022-11-15T03:03:58.159Z,0.20
2022-11-15T03:06:30.440Z,0.22
2022-11-15T03:09:17.256Z,0.20
2022-11-15T03:11:47.381Z,0.20
2022-11-15T03:14:21.186Z,0.20
2022-11-15T03:17:00.762Z,0.20
2022-11-15T03:19:31.302Z,0.13
2022-11-15T03:22:00.542Z,0.20
2022-11-15T03:24:28.094Z,0.20
2022-11-15T03:26:55.982Z,0.30
2022-11-15T03:29:25.282Z,0.20
2022-11-15T03:32:01.341Z,0.30
2022-11-15T03:34:27.823Z,0.20
2022-11-15T03:36:54.582Z,0.22
2022-11-15T03:39:21.504Z,0.22
2022-11-15T03:41:50.102Z,0.20
2022-11-15T03:44:22.141Z,0.20
2022-11-15T03:46:54.882Z,0.20
2022-11-15T03:49:25.631Z,0.30
2022-11-15T03:51:52.189Z,0.20
2022-11-15T03:54:18.729Z,0.20
2022-11-15T03:56:45.250Z,0.30
2022-11-15T03:59:11.730Z,0.20
2022-11-15T04:01:38.273Z,0.30
2022-11-15T04:04:04.890Z,0.20
2022-11-15T04:06:31.370Z,0.20
2022-11-15T04:08:57.869Z,0.20
2022-11-15T04:11:24.372Z,0.20
2022-11-15T04:13:50.930Z,0.30
2022-11-15T04:16:17.469Z,0.22
2022-11-15T04:18:43.952Z,0.20
2022-11-15T04:21:28.790Z,0.30
2022-11-15T04:24:13.496Z,0.20
2022-11-15T04:26:40.010Z,0.30
2022-11-15T04:29:25.330Z,0.30
2022-11-15T04:31:51.870Z,0.20
2022-11-15T04:34:18.371Z,0.20
2022-11-15T04:37:03.631Z,0.20
2022-11-15T04:39:30.329Z,0.20
2022-11-15T04:41:56.810Z,0.20
2022-11-15T04:44:23.350Z,0.20
2022-11-15T04:46:49.917Z,0.20
2022-11-15T04:49:16.474Z,0.28
2022-11-15T04:51:42.989Z,0.28
2022-11-15T04:54:09.492Z,0.20
2022-11-15T04:56:36.065Z,0.30
2022-11-15T04:59:02.589Z,0.15
2022-11-15T05:01:29.217Z,0.20
2022-11-15T05:04:14.330Z,0.20
2022-11-15T05:06:40.844Z,0.30
2022-11-15T05:09:07.491Z,0.20
2022-11-15T05:11:34.109Z,0.20
2022-11-15T05:14:00.590Z,0.20
2022-11-15T05:16:27.152Z,0.10
2022-11-15T05:18:54.998Z,0.20
2022-11-15T05:21:21.572Z,0.20
2022-11-15T05:23:48.189Z,0.20
2022-11-15T05:26:15.916Z,0.20
2022-11-15T05:28:42.450Z,0.20
2022-11-15T05:31:10.288Z,0.20
2022-11-15T05:33:37.474Z,0.20
2022-11-15T05:36:06.220Z,0.20
2022-11-15T05:38:32.773Z,0.20
2022-11-15T05:41:00.614Z,0.20
2022-11-15T05:43:27.335Z,0.20
2022-11-15T05:45:54.177Z,0.20
2022-11-15T05:48:20.875Z,0.20
2022-11-15T05:50:48.355Z,0.20
2022-11-15T05:53:17.236Z,0.30
2022-11-15T05:55:43.875Z,0.20
2022-11-15T05:58:10.614Z,0.20
2022-11-15T06:00:37.243Z,0.20
2022-11-15T06:03:03.884Z,0.20
2022-11-15T06:05:30.595Z,0.20
2022-11-15T06:08:00.135Z,0.20
2022-11-15T06:10:26.774Z,0.30
2022-11-15T06:12:59.853Z,0.30
2022-11-15T06:15:26.541Z,0.20
2022-11-15T06:17:53.335Z,0.30
2022-11-15T06:20:19.976Z,0.20
2022-11-15T06:22:46.576Z,0.20
2022-11-15T06:25:13.252Z,0.20
2022-11-15T06:27:39.725Z,0.20
2022-11-15T06:30:06.405Z,0.10
2022-11-15T06:32:32.936Z,0.20
2022-11-15T06:34:59.496Z,0.30
2022-11-15T06:37:25.975Z,0.20
2022-11-15T06:39:52.440Z,0.30
2022-11-15T06:42:18.936Z,0.30
2022-11-15T06:44:45.406Z,0.20
2022-11-15T06:47:11.917Z,0.30
2022-11-15T06:49:38.446Z,0.30
2022-11-15T06:52:04.988Z,0.30
2022-11-15T06:54:31.483Z,0.13
2022-11-15T06:56:58.019Z,0.20
2022-11-15T06:59:24.505Z,0.20
2022-11-15T07:01:50.946Z,0.30
2022-11-15T07:04:17.476Z,0.20
2022-11-15T07:06:43.985Z,0.22
2022-11-15T07:09:10.467Z,0.20
2022-11-15T07:11:37.104Z,0.20
2022-11-15T07:14:03.536Z,0.20
2022-11-15T07:16:30.021Z,0.20
2022-11-15T07:18:56.496Z,0.20
2022-11-15T07:21:27.436Z,0.20
2022-11-15T07:23:54.385Z,0.20
2022-11-15T07:26:20.996Z,0.20
2022-11-15T07:28:47.466Z,0.20
2022-11-15T07:31:13.926Z,0.20
2022-11-15T07:33:40.468Z,0.20
2022-11-15T07:36:07.386Z,0.15
2022-11-15T07:38:41.044Z,0.20
2022-11-15T07:41:09.478Z,0.20
2022-11-15T07:43:36.498Z,0.20
2022-11-15T07:46:08.576Z,0.20
2022-11-15T07:48:43.938Z,0.22
2022-11-15T07:51:14.154Z,0.20
2022-11-15T07:53:41.051Z,0.20
2022-11-15T07:56:08.546Z,0.20
2022-11-15T07:58:35.022Z,0.20
2022-11-15T08:01:05.435Z,0.20
2022-11-15T08:03:33.080Z,0.20
2022-11-15T08:06:00.219Z,0.20
2022-11-15T08:08:26.683Z,0.30
2022-11-15T08:10:53.226Z,0.20
2022-11-15T08:13:19.944Z,0.20
2022-11-15T08:15:46.481Z,0.28
2022-11-15T08:18:14.208Z,0.30
2022-11-15T08:20:40.897Z,0.20
2022-11-15T08:23:07.649Z,0.20
2022-11-15T08:25:34.766Z,0.20
2022-11-15T08:28:02.519Z,0.20
2022-11-15T08:30:29.274Z,0.20
2022-11-15T08:32:57.467Z,0.20
2022-11-15T08:35:28.764Z,0.17
2022-11-15T08:37:55.787Z,0.30
2022-11-15T08:40:23.069Z,0.20
2022-11-15T08:42:49.607Z,0.17
2022-11-15T08:45:16.298Z,0.20
2022-11-15T08:47:42.848Z,0.20
2022-11-15T08:50:09.708Z,0.28
2022-11-15T08:52:36.171Z,0.20
2022-11-15T08:55:02.628Z,0.30
2022-11-15T08:57:30.631Z,0.20
2022-11-15T08:59:57.543Z,0.20
2022-11-15T09:02:24.160Z,0.22
2022-11-15T09:04:50.632Z,0.20
2022-11-15T09:07:17.269Z,0.30
2022-11-15T09:09:43.870Z,0.25
2022-11-15T09:12:10.642Z,0.20
2022-11-15T09:14:37.190Z,0.30
2022-11-15T09:17:04.131Z,0.20
2022-11-15T09:19:30.623Z,0.30
2022-11-15T09:21:57.080Z,0.20
2022-11-15T09:24:23.636Z,0.22
2022-11-15T09:26:51.163Z,0.30
2022-11-15T09:29:17.930Z,0.28
2022-11-15T09:31:44.837Z,0.20
2022-11-15T09:34:12.459Z,0.22
2022-11-15T09:36:38.999Z,0.20
2022-11-15T09:39:05.472Z,0.20
2022-11-15T09:41:39.506Z,0.30
2022-11-15T09:44:24.005Z,0.25
2022-11-15T09:46:51.957Z,0.20
2022-11-15T09:49:19.485Z,0.20
2022-11-15T09:51:48.285Z,0.20
2022-11-15T09:54:52.826Z,0.20
2022-11-15T09:57:25.536Z,0.20
2022-11-15T09:59:52.007Z,0.30
2022-11-15T10:02:27.657Z,0.22
2022-11-15T10:04:54.818Z,0.20
2022-11-15T10:07:21.392Z,0.10
2022-11-15T10:09:54.043Z,0.13
2022-11-15T10:12:20.565Z,0.20
2022-11-15T10:14:54.232Z,0.20
2022-11-15T10:17:30.187Z,0.20
2022-11-15T10:20:11.865Z,0.20
2022-11-15T10:22:56.665Z,0.20
2022-11-15T10:25:23.340Z,0.13
2022-11-15T10:27:54.921Z,0.20
2022-11-15T10:30:21.732Z,0.20
2022-11-15T10:32:48.987Z,2.28
2022-11-15T10:35:19.257Z,0.20
2022-11-15T10:37:45.736Z,0.20
2022-11-15T10:40:21.387Z,0.20
2022-11-15T10:42:48.256Z,0.20
2022-11-15T10:45:25.086Z,0.17
2022-11-15T10:47:51.615Z,0.20
2022-11-15T10:50:29.235Z,0.20
2022-11-15T10:52:56.649Z,0.20
2022-11-15T10:55:26.325Z,0.20
2022-11-15T10:57:54.874Z,0.20
2022-11-15T11:00:21.334Z,0.20
2022-11-15T11:03:08.492Z,0.20
2022-11-15T11:05:42.332Z,0.20
2022-11-15T11:08:12.351Z,0.20
2022-11-15T11:10:51.433Z,0.10
2022-11-15T11:13:25.703Z,0.30
2022-11-15T11:15:59.632Z,0.20
2022-11-15T11:18:34.962Z,0.20
2022-11-15T11:21:09.286Z,0.20
2022-11-15T11:23:35.766Z,0.10
2022-11-15T11:26:20.774Z,0.20
2022-11-15T11:28:55.125Z,0.20
2022-11-15T11:31:30.494Z,0.20
2022-11-15T11:34:15.404Z,0.20
2022-11-15T11:36:44.716Z,0.30
2022-11-15T11:39:13.934Z,0.20
2022-11-15T11:41:40.374Z,0.20
2022-11-15T11:44:06.833Z,0.20
2022-11-15T11:46:42.555Z,0.28
2022-11-15T11:49:18.394Z,0.20
2022-11-15T11:51:48.785Z,0.20
2022-11-15T11:54:21.651Z,0.28
2022-11-15T11:56:48.554Z,0.20
2022-11-15T11:59:27.355Z,0.20
2022-11-15T12:01:54.070Z,0.22
2022-11-15T12:04:30.762Z,0.20
2022-11-15T12:07:00.424Z,0.20
2022-11-15T12:09:41.895Z,0.17
2022-11-15T12:12:37.754Z,0.20
2022-11-15T12:15:10.405Z,0.20
2022-11-15T12:17:38.083Z,0.20
2022-11-15T12:20:08.869Z,0.20
2022-11-15T12:22:35.365Z,0.20
2022-11-15T12:25:06.096Z,0.20
2022-11-15T12:27:37.253Z,0.20
2022-11-15T12:30:08.733Z,0.30
2022-11-15T12:32:36.345Z,0.25
2022-11-15T12:35:04.275Z,0.10
2022-11-15T12:37:34.543Z,0.20
2022-11-15T12:40:05.851Z,0.22
2022-11-15T12:42:32.283Z,0.10
2022-11-15T12:45:00.093Z,0.20
2022-11-15T12:47:27.159Z,0.20
2022-11-15T12:49:53.856Z,0.10
2022-11-15T12:52:20.813Z,0.20
2022-11-15T12:54:55.346Z,0.20
2022-11-15T12:57:21.780Z,0.20
2022-11-15T13:00:05.124Z,0.20
2022-11-15T13:02:41.160Z,0.20
2022-11-15T13:05:21.103Z,0.20
2022-11-15T13:07:48.047Z,0.30
2022-11-15T13:10:14.531Z,0.30
2022-11-15T13:12:44.741Z,0.20
2022-11-15T13:15:14.507Z,0.28
2022-11-15T13:17:43.589Z,0.20
2022-11-15T13:20:12.712Z,0.30
2022-11-15T13:22:52.835Z,0.30
2022-11-15T13:25:22.261Z,0.20
2022-11-15T13:27:49.650Z,0.20
2022-11-15T13:30:20.118Z,0.20
2022-11-15T13:32:46.640Z,0.10
2022-11-15T13:35:20.149Z,0.22
2022-11-15T13:37:46.691Z,0.20
2022-11-15T13:40:35.588Z,0.20
2022-11-15T13:43:18.440Z,0.20
2022-11-15T13:45:44.960Z,0.20
2022-11-15T13:48:11.568Z,0.20
2022-11-15T13:50:39.057Z,0.20
2022-11-15T13:53:05.923Z,0.20
2022-11-15T13:55:36.323Z,0.30
2022-11-15T13:58:07.617Z,0.20
2022-11-15T14:00:42.762Z,0.20
2022-11-15T14:03:32.510Z,0.10
2022-11-15T14:06:28.400Z,0.22
2022-11-15T14:09:10.243Z,0.20
2022-11-15T14:11:36.840Z,11.35
2022-11-15T14:14:13.490Z,11.73
2022-11-15T14:16:42.762Z,11.52
2022-11-15T14:19:21.210Z,11.20
2022-11-15T14:22:06.392Z,11.45
2022-11-15T14:24:32.929Z,10.80
2022-11-15T14:27:16.440Z,11.10
2022-11-15T14:29:42.940Z,10.70
2022-11-15T14:32:20.189Z,10.98
2022-11-15T14:34:47.180Z,11.63
2022-11-15T14:37:19.719Z,11.55
2022-11-15T14:39:46.251Z,11.40
2022-11-15T14:42:12.849Z,8.48
2022-11-15T14:44:42.279Z,10.40
2022-11-15T14:47:12.198Z,11.23
2022-11-15T14:49:38.880Z,12.13
2022-11-15T14:52:30.437Z,10.60
2022-11-15T14:55:00.258Z,11.60
2022-11-15T14:57:26.870Z,10.52
2022-11-15T14:59:53.560Z,10.70
2022-11-15T15:02:24.201Z,11.70
2022-11-15T15:04:51.081Z,10.70
2022-11-15T15:07:18.344Z,11.23
2022-11-15T15:09:45.523Z,10.07
2022-11-15T15:12:14.996Z,9.80
2022-11-15T15:14:41.611Z,10.50
2022-11-15T15:17:08.149Z,10.32
2022-11-15T15:19:34.690Z,10.77
2022-11-15T15:22:01.199Z,9.73
2022-11-15T15:24:28.381Z,10.93
2022-11-15T15:26:55.000Z,11.02
2022-11-15T15:29:21.493Z,10.27
2022-11-15T15:31:48.322Z,10.18
2022-11-15T15:34:16.856Z,10.50
2022-11-15T15:36:43.620Z,11.55
2022-11-15T15:39:11.541Z,10.18
2022-11-15T15:41:38.001Z,10.20
2022-11-15T15:44:04.502Z,10.27
2022-11-15T15:46:31.141Z,9.57
2022-11-15T15:48:57.640Z,10.55
2022-11-15T15:51:24.189Z,10.60
2022-11-15T15:53:52.721Z,10.07
2022-11-15T15:56:19.329Z,10.35
2022-11-15T15:58:46.400Z,9.73
2022-11-15T16:01:13.282Z,10.10
2022-11-15T16:03:39.769Z,10.10
2022-11-15T16:06:06.423Z,10.75
2022-11-15T16:08:47.490Z,10.50
2022-11-15T16:11:23.459Z,10.05
2022-11-15T16:13:49.988Z,9.77
2022-11-15T16:16:16.810Z,7.88
2022-11-15T16:18:43.282Z,10.35
2022-11-15T16:21:09.794Z,10.32
2022-11-15T16:23:36.360Z,9.85
2022-11-15T16:26:04.381Z,9.43
2022-11-15T16:28:32.495Z,10.27
2022-11-15T16:31:02.051Z,9.65
2022-11-15T16:33:28.909Z,10.30
2022-11-15T16:35:55.431Z,10.27
2022-11-15T16:38:21.931Z,11.75
2022-11-15T16:40:48.462Z,12.65
2022-11-15T16:43:15.030Z,12.80
2022-11-15T16:45:41.540Z,12.40
2022-11-15T16:48:16.120Z,12.77
2022-11-15T16:50:43.119Z,12.73
2022-11-15T16:53:09.590Z,13.35
2022-11-15T16:55:36.072Z,13.65
2022-11-15T16:58:02.683Z,13.57
2022-11-15T17:00:29.309Z,13.35
2022-11-15T17:02:56.304Z,16.45
2022-11-15T17:05:23.701Z,15.52
2022-11-15T17:07:52.363Z,14.25
2022-11-15T17:10:18.871Z,12.75
2022-11-15T17:12:45.462Z,13.60
2022-11-15T17:15:12.510Z,12.82
2022-11-15T17:17:39.671Z,12.68
2022-11-15T17:20:09.902Z,11.63
2022-11-15T17:22:36.780Z,11.70
2022-11-15T17:25:03.782Z,12.02
2022-11-15T17:27:30.553Z,11.90
2022-11-15T17:29:57.079Z,10.48
2022-11-15T17:32:23.602Z,11.13
2022-11-15T17:34:50.081Z,10.40
2022-11-15T17:37:16.764Z,10.27
2022-11-15T17:39:43.201Z,10.77
2022-11-15T17:42:09.926Z,10.60
2022-11-15T17:44:36.456Z,10.40
2022-11-15T17:47:02.973Z,10.15
2022-11-15T17:49:29.615Z,10.15
2022-11-15T17:51:56.113Z,9.32
2022-11-15T17:54:22.623Z,9.50
2022-11-15T17:56:49.151Z,9.15
2022-11-15T17:59:20.144Z,8.88
2022-11-15T18:01:47.973Z,9.63
2022-11-15T18:04:15.255Z,9.23
2022-11-15T18:06:41.883Z,9.55
2022-11-15T18:09:08.556Z,9.35
2022-11-15T18:11:38.384Z,9.95
2022-11-15T18:14:06.484Z,9.70
2022-11-15T18:16:34.053Z,9.38
2022-11-15T18:19:00.553Z,9.52
2022-11-15T18:21:28.439Z,8.82
2022-11-15T18:23:56.796Z,9.25
2022-11-15T18:26:27.676Z,8.77
2022-11-15T18:28:55.274Z,9.52
2022-11-15T18:31:29.105Z,8.85
2022-11-15T18:33:56.093Z,10.05
2022-11-15T18:36:24.384Z,9.95
2022-11-15T18:39:02.452Z,9.75
2022-11-15T18:41:29.582Z,9.95
2022-11-15T18:43:57.224Z,9.90
2022-11-15T18:46:24.403Z,10.07
2022-11-15T18:48:51.484Z,10.25
2022-11-15T18:51:19.114Z,10.48
2022-11-15T18:53:46.523Z,10.98
2022-11-15T18:56:12.973Z,10.27
2022-11-15T18:58:40.803Z,10.05
2022-11-15T19:01:11.384Z,10.85
2022-11-15T19:03:42.163Z,10.15
2022-11-15T19:06:29.337Z,10.25
2022-11-15T19:08:57.454Z,10.75
2022-11-15T19:11:27.104Z,10.27
2022-11-15T19:14:00.606Z,10.77
2022-11-15T19:16:27.774Z,11.20
2022-11-15T19:18:57.903Z,11.48
2022-11-15T19:21:25.263Z,11.95
2022-11-15T19:23:54.156Z,11.27
2022-11-15T19:26:22.352Z,11.15
2022-11-15T19:28:56.283Z,11.18
2022-11-15T19:31:26.547Z,11.00
2022-11-15T19:33:53.305Z,11.05
2022-11-15T19:36:21.309Z,10.38
2022-11-15T19:38:47.983Z,10.63
2022-11-15T19:41:18.366Z,11.30
2022-11-15T19:43:47.883Z,11.80
2022-11-15T19:46:14.983Z,9.45
2022-11-15T19:48:41.723Z,11.10
2022-11-15T19:51:10.812Z,10.48
2022-11-15T19:53:37.970Z,10.45
2022-11-15T19:56:09.744Z,10.38
2022-11-15T19:58:36.353Z,10.45
2022-11-15T20:01:13.750Z,10.25
2022-11-15T20:03:40.926Z,10.68
2022-11-15T20:06:08.683Z,10.73
2022-11-15T20:08:35.513Z,10.77
2022-11-15T20:11:03.014Z,9.52
2022-11-15T20:13:29.683Z,10.18
2022-11-15T20:15:56.703Z,7.93
2022-11-15T20:18:24.183Z,9.88
2022-11-15T20:20:50.833Z,9.48
2022-11-15T20:23:17.625Z,9.35
2022-11-15T20:25:44.803Z,9.70
2022-11-15T20:28:14.944Z,9.70
2022-11-15T20:30:43.123Z,9.85
2022-11-15T20:33:09.694Z,8.00
2022-11-15T20:35:36.223Z,9.43
2022-11-15T20:38:02.703Z,10.18
2022-11-15T20:40:29.123Z,10.02
2022-11-15T20:42:55.615Z,9.73
2022-11-15T20:45:22.154Z,9.00
2022-11-15T20:47:48.723Z,9.45
2022-11-15T20:50:41.173Z,9.27
2022-11-15T20:53:01.819Z,9.15
2022-11-15T20:55:28.295Z,9.27
2022-11-15T20:57:54.783Z,9.52
2022-11-15T21:00:25.005Z,11.10
2022-11-15T21:02:52.003Z,11.52
2022-11-15T21:05:18.744Z,9.57
2022-11-15T21:07:45.494Z,8.80
2022-11-15T21:10:30.899Z,8.82
2022-11-15T21:12:57.507Z,8.60
2022-11-15T21:15:23.971Z,8.10
2022-11-15T21:17:50.506Z,8.60
2022-11-15T21:20:17.138Z,9.25
2022-11-15T21:22:43.617Z,8.43
2022-11-15T21:25:10.190Z,8.32
2022-11-15T21:27:36.690Z,8.05
2022-11-15T21:30:03.350Z,7.63
2022-11-15T21:32:30.023Z,8.57
2022-11-15T21:34:56.738Z,7.40
2022-11-15T21:37:23.218Z,7.60
2022-11-15T21:39:49.651Z,8.43
2022-11-15T21:42:16.118Z,7.63
2022-11-15T21:44:42.700Z,8.68
2022-11-15T21:47:09.238Z,7.55
2022-11-15T21:49:35.776Z,7.65
2022-11-15T21:52:02.248Z,7.30
2022-11-15T21:54:28.718Z,7.28
2022-11-15T21:56:55.209Z,7.18
2022-11-15T21:59:21.747Z,7.85
2022-11-15T22:02:06.866Z,7.50
2022-11-15T22:04:33.286Z,7.72
2022-11-15T22:06:59.760Z,8.02
2022-11-15T22:09:26.220Z,7.35
2022-11-15T22:11:52.614Z,8.02
2022-11-15T22:14:19.143Z,7.72
2022-11-15T22:16:45.730Z,7.00
2022-11-15T22:19:12.237Z,6.95
2022-11-15T22:21:39.923Z,7.80
2022-11-15T22:24:06.966Z,8.23
2022-11-15T22:26:33.539Z,7.20
2022-11-15T22:29:00.099Z,7.55
2022-11-15T22:31:26.706Z,6.75
2022-11-15T22:33:53.200Z,7.45
2022-11-15T22:36:19.802Z,7.50
2022-11-15T22:38:46.321Z,7.53
2022-11-15T22:41:12.842Z,7.28
2022-11-15T22:43:39.427Z,7.28
2022-11-15T22:46:06.095Z,7.00
2022-11-15T22:48:37.076Z,7.82
2022-11-15T22:51:04.484Z,7.47
2022-11-15T22:53:31.234Z,7.50
2022-11-15T22:56:01.880Z,7.40
2022-11-15T22:58:29.287Z,8.05
2022-11-15T23:00:57.228Z,7.38
2022-11-15T23:03:24.553Z,7.60
2022-11-15T23:05:51.429Z,7.88
2022-11-15T23:08:18.140Z,6.50
2022-11-15T23:11:03.232Z,7.68
2022-11-15T23:13:30.489Z,6.72
2022-11-15T23:16:22.969Z,6.82
2022-11-15T23:18:50.502Z,7.65
2022-11-15T23:21:40.900Z,7.25
2022-11-15T23:24:08.793Z,6.97
2022-11-15T23:26:35.330Z,6.80
2022-11-15T23:29:01.897Z,7.03
2022-11-15T23:31:46.890Z,7.20
2022-11-15T23:34:13.697Z,7.63
2022-11-15T23:36:42.009Z,7.20
2022-11-15T23:39:08.770Z,6.95
2022-11-15T23:41:35.384Z,6.32
2022-11-15T23:44:01.936Z,6.85
2022-11-15T23:46:28.496Z,6.90
2022-11-15T23:48:55.173Z,7.30
2022-11-15T23:51:21.711Z,6.40
2022-11-15T23:53:48.289Z,6.78
2022-11-15T23:56:16.198Z,7.05
2022-11-15T23:58:43.171Z,7.25
